AirNav   Pilot Hours Calculator
 
 1409 users online  

2IA0 Genesis Medical Center East Campus Heliport
Davenport, Iowa, USA

GOING TO DAVENPORT?


FAA INFORMATION EFFECTIVE 30 JANUARY 2020

Location

FAA Identifier: 2IA0
Lat/Long: 41-32-33.2400N 090-33-21.4400W
41-32.554000N 090-33.357333W
41.5425667,-90.5559556
(estimated)
Elevation: 673 ft. / 205 m (estimated)
Variation: 01E (1985)
Time zone: UTC -6 (UTC -5 during Daylight Saving Time)
Zip code: 52803

Heliport Operations

Heliport use: Private use, MEDICAL.
Activation date: 12/1982
Control tower: no
ARTCC: CHICAGO CENTER
FSS: FORT DODGE FLIGHT SERVICE STATION
Attendance: CONTINUOUS
Wind indicator: yes
Segmented circle: yes
Lights: SS-SR

Heliport Communications

WX ASOS at DVN (4 nm N): 120.175 (563-388-2154)
WX ASOS at MLI (6 nm S): 121.2 (309-732-8731)

Nearby radio navigation aids

VOR radial/distance  VOR name  Freq  Var
CVAr194/10.5DAVENPORT VORTAC113.8004E
MZVr011/13.8MOLINE VOR/DME114.4005E
GBGr348/36.7GALESBURG VOR/DME109.8003E

 
NDB name  Hdg/Dist  Freq  Var  ID
HILLZ211/14.651700EFN ..-. -.

Heliport Services

Runway Information

Helipad H1

Dimensions: 100 x 100 ft. / 30 x 30 m
Surface: concrete
Runway edge lights: PERI
Latitude: 41-32.554000N
Longitude: 090-33.357333W
Elevation: 673.0 ft.
Traffic pattern: rightleft
Obstructions: road
PLINES TO NORTHEAST, EAST & SOUTHEAST MKD WITH ORANGE BALLS.

Heliport Ownership and Management from official FAA records

Ownership: Privately-owned
Owner: GENESIS MEDICAL CENTER
1227 E. RUSHOLME
DAVENPORT, IA 52803
Phone (563) 421-1611
Manager: KEVIN ROSSMILLER
1227 E. RUSHOLME
DAVENPORT, IA 52803
Phone (563) 421-1611

Additional Remarks

INGRESS/EGRESS 53 DEG- 73 DEG & 150 DEG-170 DEG.
FOR CD CTC CHICAGO ARTCC AT 630-906-8921.

Instrument Procedures

There are no published instrument procedures at 2IA0.

Some nearby airports with instrument procedures:

KDVN - Davenport Municipal Airport (4 nm N)
KMLI - Quad City International Airport (6 nm S)
KCWI - Clinton Municipal Airport (20 nm NE)
KMUT - Muscatine Municipal Airport (29 nm W)
8C4 - Mathews Memorial Airport (30 nm NW)
 
Loc | Ops | Rwys | IFR | FBO | Links
Com | Nav | Svcs | Stats | Notes
Area around 2IA0 (Genesis Medical Center East Campus Heliport)
 
Road maps at: MapQuest Bing Google
 
Aerial photo
No photo
 
Sectional chart

 
Airport distance calculator
Flying to Genesis Medical Center East Campus Heliport? Find the distance to fly.

From to 2IA0

Sunrise and sunset
Times for 17-Feb-2020
 Local
(UTC-6)
 Zulu
(UTC)
Morning civil twilight06:2712:27
Sunrise06:5612:56
Sunset17:3723:37
Evening civil twilight18:0500:05

Current date and time
Zulu (UTC)  17-Feb-2020 16:51:43
Local (UTC-6)  17-Feb-2020 10:51:43
 
METAR
KDVN 
5nm N 
171612Z AUTO 11009KT 2 1/2SM -RA BR FEW031 BKN040 OVC047 01/M01 A2997 RMK AO2 P0001 T00111011
KMLI 
6nm S 
171552Z 09008KT 4SM -RA BR FEW033 OVC045 02/M01 A2996 RMK AO2 UPB29E38RAB38 SLP153 P0001 T00171006 $
KCWI 
20nm NE 
171556Z AUTO 11011KT 3SM UP BR OVC032 00/M01 A2998 RMK AO2 SLP166 P0001 T00001006 FZRANO
TAF
KMLI 
6nm S 
171120Z 1712/1812 09007KT 6SM -RA BR OVC050 FM171400 12009KT 6SM -RA BR OVC018 FM171700 13010KT 5SM BR OVC008 FM180200 29012KT P6SM SCT010 OVC025
NOTAMs
Click for the latest NOTAMs
NOTAMs are issued by the DoD/FAA and will open in a separate window not controlled by AirNav.

 

 
 

Would you like to see your business listed on this page?

 If your business provides an interesting product or service to pilots, flight crews, aircraft, or users of the Genesis Medical Center East Campus Heliport, you should consider listing it here.  To start the listing process, click on the button below
 
Add a business
 

Other Pages about Genesis Medical Center East Campus Heliport

Update a link
 
Copyright © AirNav, LLC. All rights reserved. Privacy Policy  Contact